createdAt,value
2022-10-11T00:01:49.577Z,77.82
2022-10-11T00:04:26.019Z,78.08
2022-10-11T00:06:57.788Z,78.57
2022-10-11T00:09:29.798Z,77.02
2022-10-11T00:12:04.249Z,79.51
2022-10-11T00:14:37.066Z,80.37
2022-10-11T00:17:09.648Z,80.34
2022-10-11T00:19:41.609Z,78.46
2022-10-11T00:22:16.229Z,78.48
2022-10-11T00:24:48.336Z,81.18
2022-10-11T00:27:24.897Z,79.05
2022-10-11T00:29:57.387Z,80.49
2022-10-11T00:32:29.459Z,80.10
2022-10-11T00:35:05.105Z,80.58
2022-10-11T00:37:38.849Z,79.22
2022-10-11T00:40:17.618Z,79.12
2022-10-11T00:42:52.136Z,80.23
2022-10-11T00:46:03.098Z,80.45
2022-10-11T00:48:44.058Z,79.86
2022-10-11T00:51:23.809Z,80.14
2022-10-11T00:53:56.739Z,80.96
2022-10-11T00:56:37.368Z,79.92
2022-10-11T00:59:15.438Z,81.82
2022-10-11T01:01:47.808Z,81.81
2022-10-11T01:04:19.578Z,82.22
2022-10-11T01:06:53.649Z,83.48
2022-10-11T01:09:25.899Z,85.01
2022-10-11T01:12:04.156Z,84.99
2022-10-11T01:15:06.440Z,84.20
2022-10-11T01:17:53.557Z,83.29
2022-10-11T01:20:37.798Z,82.90
2022-10-11T01:23:53.336Z,84.55
2022-10-11T01:26:59.659Z,85.34
2022-10-11T01:29:49.698Z,83.49
2022-10-11T01:32:30.205Z,83.52
2022-10-11T01:35:08.836Z,82.83
2022-10-11T01:37:43.870Z,84.17
2022-10-11T01:40:22.337Z,85.06
2022-10-11T01:42:55.885Z,87.08
2022-10-11T01:45:28.648Z,86.21
2022-10-11T01:48:11.914Z,86.42
2022-10-11T01:50:48.299Z,85.68
2022-10-11T01:53:50.827Z,88.00
2022-10-11T01:56:33.988Z,90.73
2022-10-11T01:59:29.381Z,88.70
2022-10-11T02:02:13.806Z,86.87
2022-10-11T02:04:53.547Z,89.06
2022-10-11T02:07:30.888Z,89.26
2022-10-11T02:10:10.968Z,89.54
2022-10-11T02:12:48.728Z,89.04
2022-10-11T02:15:22.286Z,89.51
2022-10-11T02:17:59.536Z,89.71
2022-10-11T02:20:37.548Z,88.78
2022-10-11T02:23:13.867Z,88.30
2022-10-11T02:25:49.407Z,88.65
2022-10-11T02:28:26.800Z,90.19
2022-10-11T02:31:01.750Z,89.25
2022-10-11T02:33:40.736Z,88.56
2022-10-11T02:36:25.073Z,91.88
2022-10-11T02:39:01.321Z,90.72
2022-10-11T02:41:37.396Z,90.98
2022-10-11T02:44:14.187Z,90.48
2022-10-11T02:46:48.607Z,89.32
2022-10-11T02:49:21.800Z,89.52
2022-10-11T02:51:58.438Z,90.14
2022-10-11T02:54:30.767Z,88.57
2022-10-11T02:57:02.588Z,88.60
2022-10-11T02:59:34.661Z,90.25
2022-10-11T03:02:06.455Z,89.97
2022-10-11T03:04:38.606Z,91.31
2022-10-11T03:07:13.061Z,90.82
2022-10-11T03:09:47.399Z,90.96
2022-10-11T03:12:19.196Z,92.06
2022-10-11T03:14:51.256Z,91.43
2022-10-11T03:17:37.943Z,92.86
2022-10-11T03:20:16.227Z,93.37
2022-10-11T03:22:53.105Z,91.45
2022-10-11T03:25:25.126Z,92.11
2022-10-11T03:27:56.846Z,92.47
2022-10-11T03:30:29.136Z,94.87
2022-10-11T03:33:01.026Z,97.59
2022-10-11T03:35:35.470Z,96.85
2022-10-11T03:38:12.977Z,94.86
2022-10-11T03:40:46.097Z,95.39
2022-10-11T03:43:20.727Z,96.17
2022-10-11T03:45:52.717Z,96.31
2022-10-11T03:48:24.427Z,96.59
2022-10-11T03:50:57.830Z,96.01
2022-10-11T03:53:32.246Z,96.80
2022-10-11T03:56:08.329Z,96.26
2022-10-11T03:58:41.489Z,96.63
2022-10-11T04:01:14.036Z,99.84
2022-10-11T04:03:45.759Z,97.88
2022-10-11T04:06:18.960Z,96.88
2022-10-11T04:08:53.468Z,95.33
2022-10-11T04:11:25.656Z,96.70
2022-10-11T04:13:57.540Z,97.69
2022-10-11T04:16:30.997Z,97.59
2022-10-11T04:19:02.668Z,95.85
2022-10-11T04:21:34.673Z,95.40
2022-10-11T04:24:09.437Z,97.95
2022-10-11T04:26:41.829Z,99.11
2022-10-11T04:29:13.476Z,97.53
2022-10-11T04:31:45.680Z,95.95
2022-10-11T04:34:17.576Z,97.97
2022-10-11T04:36:50.188Z,97.26
2022-10-11T04:39:24.546Z,96.24
2022-10-11T04:41:57.789Z,96.23
2022-10-11T04:44:32.419Z,97.94
2022-10-11T04:47:06.875Z,99.18
2022-10-11T04:49:38.352Z,100.00
2022-10-11T04:52:10.198Z,100.00
2022-10-11T04:54:44.393Z,99.21
2022-10-11T04:57:16.047Z,100.00
2022-10-11T04:59:50.167Z,97.31
2022-10-11T05:02:22.323Z,96.61
2022-10-11T05:04:54.244Z,96.45
2022-10-11T05:07:26.004Z,96.45
2022-10-11T05:09:59.968Z,98.52
2022-10-11T05:12:31.737Z,98.93
2022-10-11T05:15:03.477Z,100.00
2022-10-11T05:17:35.347Z,100.00
2022-10-11T05:20:07.477Z,100.00
2022-10-11T05:22:39.417Z,99.96
2022-10-11T05:25:13.978Z,99.59
2022-10-11T05:27:46.158Z,100.00
2022-10-11T05:30:17.816Z,99.20
2022-10-11T05:32:49.705Z,98.31
2022-10-11T05:35:21.299Z,97.17
2022-10-11T05:37:55.979Z,99.88
2022-10-11T05:40:30.203Z,100.00
2022-10-11T05:43:02.199Z,100.00
2022-10-11T05:45:35.379Z,97.45
2022-10-11T05:48:08.061Z,93.22
2022-10-11T05:50:40.578Z,92.26
2022-10-11T05:53:15.226Z,91.30
2022-10-11T05:55:50.259Z,90.61
2022-10-11T05:58:22.243Z,93.11
2022-10-11T06:00:53.932Z,92.93
2022-10-11T06:03:26.119Z,92.86
2022-10-11T06:06:00.260Z,98.23
2022-10-11T06:08:32.200Z,98.69
2022-10-11T06:11:14.016Z,96.50
2022-10-11T06:13:46.316Z,93.28
2022-10-11T06:16:18.358Z,92.33
2022-10-11T06:18:50.338Z,92.56
2022-10-11T06:21:21.798Z,92.40
2022-10-11T06:23:59.860Z,93.92
2022-10-11T06:26:35.826Z,93.66
2022-10-11T06:29:08.420Z,94.01
2022-10-11T06:31:40.742Z,93.17
2022-10-11T06:34:12.700Z,91.30
2022-10-11T06:36:44.314Z,90.46
2022-10-11T06:39:16.219Z,92.40
2022-10-11T06:41:50.318Z,91.59
2022-10-11T06:44:22.337Z,89.79
2022-10-11T06:46:54.367Z,90.01
2022-10-11T06:49:26.533Z,90.36
2022-10-11T06:51:58.458Z,92.04
2022-10-11T06:54:31.227Z,89.66
2022-10-11T06:57:07.420Z,91.00
2022-10-11T06:59:42.940Z,90.32
2022-10-11T07:02:15.220Z,90.77
2022-10-11T07:04:47.789Z,92.06
2022-10-11T07:07:20.059Z,91.85
2022-10-11T07:09:52.742Z,91.81
2022-10-11T07:12:29.219Z,92.35
2022-10-11T07:15:01.820Z,91.69
2022-10-11T07:17:34.112Z,89.10
2022-10-11T07:20:06.962Z,90.11
2022-10-11T07:22:39.430Z,87.72
2022-10-11T07:25:12.590Z,90.67
2022-10-11T07:27:49.691Z,90.49
2022-10-11T07:30:22.632Z,89.10
2022-10-11T07:32:54.793Z,88.13
2022-10-11T07:35:27.589Z,91.51
2022-10-11T07:37:59.900Z,92.49
2022-10-11T07:40:33.156Z,90.86
2022-10-11T07:43:09.909Z,89.13
2022-10-11T07:45:43.168Z,89.39
2022-10-11T07:48:15.470Z,90.00
2022-10-11T07:50:48.311Z,90.79
2022-10-11T07:53:20.469Z,89.48
2022-10-11T07:55:53.430Z,85.67
2022-10-11T07:58:28.469Z,85.86
2022-10-11T08:01:01.079Z,85.40
2022-10-11T08:03:33.609Z,83.03
2022-10-11T08:08:43.218Z,83.47
2022-10-11T08:11:23.926Z,81.61
2022-10-11T08:14:01.947Z,78.72
2022-10-11T08:16:48.232Z,79.06
2022-10-11T08:19:20.670Z,75.07
2022-10-11T08:21:54.600Z,71.56
2022-10-11T08:24:26.866Z,70.29
2022-10-11T08:26:59.987Z,70.12
2022-10-11T08:29:36.025Z,71.35
2022-10-11T08:32:12.229Z,69.33
2022-10-11T08:34:44.547Z,67.33
2022-10-11T08:37:17.113Z,59.88
2022-10-11T08:39:49.546Z,55.36
2022-10-11T08:42:32.507Z,50.40
2022-10-11T08:45:12.421Z,51.46
2022-10-11T08:47:48.394Z,59.04
2022-10-11T08:50:23.588Z,63.64
2022-10-11T08:53:01.106Z,59.82
2022-10-11T08:55:42.266Z,58.11
2022-10-11T08:58:20.826Z,55.17
2022-10-11T09:00:59.985Z,56.21
2022-10-11T09:03:41.682Z,56.99
2022-10-11T09:06:24.745Z,56.51
2022-10-11T09:09:16.028Z,54.04
2022-10-11T09:12:00.707Z,53.67
2022-10-11T09:15:00.633Z,56.70
2022-10-11T09:17:50.745Z,55.47
2022-10-11T09:20:48.987Z,51.11
2022-10-11T09:23:35.238Z,51.75
2022-10-11T09:26:10.195Z,53.10
2022-10-11T09:29:00.889Z,50.08
2022-10-11T09:31:36.472Z,50.39
2022-10-11T09:34:16.034Z,52.71
2022-10-11T09:36:55.992Z,49.28
2022-10-11T09:39:35.766Z,46.01
2022-10-11T09:42:10.992Z,48.09
2022-10-11T09:44:49.073Z,49.36
2022-10-11T09:47:24.000Z,45.67
2022-10-11T09:50:05.355Z,45.99
2022-10-11T09:52:38.112Z,45.92
2022-10-11T09:55:10.993Z,48.29
2022-10-11T09:57:44.081Z,53.78
2022-10-11T10:00:24.871Z,51.57
2022-10-11T10:02:59.156Z,51.03
2022-10-11T10:05:37.151Z,53.93
2022-10-11T10:08:27.192Z,52.11
2022-10-11T10:11:04.792Z,54.79
2022-10-11T10:13:50.283Z,50.66
2022-10-11T10:16:27.270Z,50.14
2022-10-11T10:19:03.796Z,50.93
2022-10-11T10:21:43.250Z,48.39
2022-10-11T10:24:24.149Z,46.85
2022-10-11T10:27:10.751Z,45.46
2022-10-11T10:29:44.032Z,46.51
2022-10-11T10:32:28.706Z,45.04
2022-10-11T10:35:17.955Z,47.55
2022-10-11T10:38:04.139Z,47.51
2022-10-11T10:40:42.423Z,46.68
2022-10-11T10:43:21.940Z,47.01
2022-10-11T10:46:09.040Z,48.33
2022-10-11T10:49:28.783Z,46.32
2022-10-11T10:51:49.804Z,47.45
2022-10-11T10:54:36.473Z,47.02
2022-10-11T10:57:20.176Z,45.47
2022-10-11T11:00:07.676Z,47.40
2022-10-11T11:02:49.862Z,44.63
2022-10-11T11:05:40.805Z,43.55
2022-10-11T11:08:22.701Z,43.56
2022-10-11T11:11:08.158Z,46.99
2022-10-11T11:13:48.724Z,47.58
2022-10-11T11:16:35.641Z,47.23
2022-10-11T11:19:17.509Z,46.91
2022-10-11T11:21:58.562Z,46.03
2022-10-11T11:24:42.774Z,47.41
2022-10-11T11:27:29.243Z,48.39
2022-10-11T11:30:08.082Z,48.27
2022-10-11T11:32:50.928Z,46.16
2022-10-11T11:35:31.047Z,46.94
2022-10-11T11:38:07.790Z,47.11
2022-10-11T11:40:47.294Z,45.49
2022-10-11T11:43:29.197Z,48.34
2022-10-11T11:46:13.960Z,48.13
2022-10-11T11:48:47.538Z,50.47
2022-10-11T11:51:22.429Z,47.24
2022-10-11T11:54:08.529Z,48.62
2022-10-11T11:56:54.303Z,48.06
2022-10-11T11:59:59.379Z,45.93
2022-10-11T12:03:01.649Z,46.12
2022-10-11T12:05:39.224Z,49.09
2022-10-11T12:08:27.635Z,48.25
2022-10-11T12:11:04.862Z,48.02
2022-10-11T12:13:38.861Z,48.08
2022-10-11T12:16:18.490Z,48.43
2022-10-11T12:18:54.785Z,47.53
2022-10-11T12:21:33.629Z,50.63
2022-10-11T12:24:14.485Z,50.33
2022-10-11T12:26:47.776Z,47.97
2022-10-11T12:29:58.138Z,48.94
2022-10-11T12:33:05.897Z,48.71
2022-10-11T12:36:01.479Z,49.51
2022-10-11T12:38:37.939Z,50.20
2022-10-11T12:41:40.767Z,50.30
2022-10-11T12:44:23.496Z,48.04
2022-10-11T12:47:24.180Z,48.21
2022-10-11T12:50:13.286Z,51.20
2022-10-11T12:53:04.052Z,48.95
2022-10-11T12:55:54.785Z,48.60
2022-10-11T12:58:38.695Z,48.42
2022-10-11T13:01:23.228Z,47.84
2022-10-11T13:04:02.583Z,48.09
2022-10-11T13:06:41.176Z,46.87
2022-10-11T13:09:21.716Z,46.89
2022-10-11T13:11:57.388Z,49.29
2022-10-11T13:14:34.469Z,48.86
2022-10-11T13:17:17.836Z,48.12
2022-10-11T13:19:53.893Z,46.42
2022-10-11T13:22:28.606Z,46.97
2022-10-11T13:25:00.293Z,46.86
2022-10-11T13:27:31.688Z,48.34
2022-10-11T13:30:06.538Z,48.46
2022-10-11T13:32:39.923Z,49.06
2022-10-11T13:35:23.830Z,49.29
2022-10-11T13:37:59.614Z,49.97
2022-10-11T13:40:34.254Z,50.85
2022-10-11T13:43:09.012Z,48.04
2022-10-11T13:45:42.336Z,48.03
2022-10-11T13:48:19.772Z,47.83
2022-10-11T13:51:10.493Z,45.86
2022-10-11T13:54:00.494Z,44.12
2022-10-11T13:56:36.476Z,45.15
2022-10-11T13:59:08.826Z,44.66
2022-10-11T14:01:44.569Z,45.46
2022-10-11T14:04:19.695Z,44.49
2022-10-11T14:06:58.658Z,43.86
2022-10-11T14:09:36.413Z,44.54
2022-10-11T14:12:32.457Z,45.21
2022-10-11T14:15:06.534Z,46.44
2022-10-11T14:17:46.415Z,48.44
2022-10-11T14:20:23.457Z,49.04
2022-10-11T14:22:57.414Z,47.69
2022-10-11T14:25:33.094Z,47.26
2022-10-11T14:28:16.341Z,46.13
2022-10-11T14:30:49.014Z,45.85
2022-10-11T14:33:22.255Z,46.92
2022-10-11T14:35:54.857Z,47.42
2022-10-11T14:38:27.700Z,48.22
2022-10-11T14:41:02.894Z,49.79
2022-10-11T14:43:35.817Z,49.77
2022-10-11T14:46:08.631Z,49.46
2022-10-11T14:48:54.901Z,48.38
2022-10-11T14:51:34.374Z,49.54
2022-10-11T14:54:07.493Z,48.72
2022-10-11T14:56:42.853Z,47.88
2022-10-11T14:59:18.535Z,48.05
2022-10-11T15:01:54.151Z,47.41
2022-10-11T15:04:29.253Z,45.87
2022-10-11T15:07:02.400Z,47.14
2022-10-11T15:09:35.645Z,46.28
2022-10-11T15:12:12.745Z,47.94
2022-10-11T15:14:45.756Z,47.25
2022-10-11T15:17:18.316Z,47.42
2022-10-11T15:19:51.358Z,47.61
2022-10-11T15:22:23.834Z,48.12
2022-10-11T15:25:17.259Z,47.94
2022-10-11T15:27:51.702Z,48.34
2022-10-11T15:30:27.525Z,48.38
2022-10-11T15:32:59.394Z,48.99
2022-10-11T15:35:34.467Z,49.41
2022-10-11T15:38:06.765Z,49.92
2022-10-11T15:40:49.078Z,50.07
2022-10-11T15:43:25.168Z,50.17
2022-10-11T15:46:05.090Z,50.19
2022-10-11T15:48:44.366Z,50.75
2022-10-11T15:51:20.378Z,50.50
2022-10-11T15:54:01.254Z,51.05
2022-10-11T15:56:46.165Z,51.68
2022-10-11T15:59:28.499Z,52.09
2022-10-11T16:02:05.584Z,53.48
2022-10-11T16:04:52.950Z,54.04
2022-10-11T16:07:41.003Z,54.25
2022-10-11T16:10:15.573Z,54.71
2022-10-11T16:13:16.466Z,55.18
2022-10-11T16:15:58.836Z,55.17
2022-10-11T16:18:36.989Z,55.13
2022-10-11T16:21:32.341Z,55.61
2022-10-11T16:24:13.844Z,56.61
2022-10-11T16:26:48.408Z,57.29
2022-10-11T16:29:20.727Z,58.65
2022-10-11T16:31:55.366Z,57.97
2022-10-11T16:34:27.648Z,58.88
2022-10-11T16:36:59.533Z,61.28
2022-10-11T16:39:31.995Z,61.66
2022-10-11T16:42:04.108Z,62.93
2022-10-11T16:44:38.824Z,64.18
2022-10-11T16:47:13.573Z,64.84
2022-10-11T16:49:46.049Z,65.42
2022-10-11T16:52:17.990Z,66.24
2022-10-11T16:54:51.610Z,67.77
2022-10-11T16:57:23.752Z,67.70
2022-10-11T16:59:56.079Z,67.35
2022-10-11T17:02:32.573Z,68.38
2022-10-11T17:05:05.063Z,68.81
2022-10-11T17:07:37.163Z,69.36
2022-10-11T17:10:10.978Z,69.93
2022-10-11T17:12:47.747Z,70.98
2022-10-11T17:15:23.354Z,71.22
2022-10-11T17:17:58.974Z,70.77
2022-10-11T17:20:31.237Z,71.64
2022-10-11T17:23:03.395Z,71.54
2022-10-11T17:25:35.655Z,72.17
2022-10-11T17:28:07.558Z,72.74
2022-10-11T17:30:41.938Z,73.23
2022-10-11T17:33:16.436Z,74.41
2022-10-11T17:35:48.779Z,74.73
2022-10-11T17:38:21.157Z,74.55
2022-10-11T17:41:02.177Z,74.52
2022-10-11T17:43:34.936Z,75.50
2022-10-11T17:46:09.657Z,76.23
2022-10-11T17:48:45.716Z,75.68
2022-10-11T17:51:20.416Z,76.45
2022-10-11T17:53:53.857Z,76.85
2022-10-11T17:56:30.417Z,77.58
2022-10-11T17:59:04.334Z,78.55
2022-10-11T18:01:36.496Z,77.63
2022-10-11T18:04:16.846Z,78.18
2022-10-11T18:06:51.057Z,78.31
2022-10-11T18:09:25.478Z,78.69
2022-10-11T18:11:57.798Z,80.25
2022-10-11T18:14:29.797Z,79.70
2022-10-11T18:17:01.996Z,79.46
2022-10-11T18:19:36.572Z,80.51
2022-10-11T18:22:08.870Z,80.44
2022-10-11T18:24:41.708Z,80.59
2022-10-11T18:27:14.072Z,80.54
2022-10-11T18:29:45.873Z,81.07
2022-10-11T18:32:21.170Z,81.78
2022-10-11T18:34:56.092Z,82.17
2022-10-11T18:37:28.870Z,82.28
2022-10-11T18:40:00.790Z,82.68
2022-10-11T18:42:33.171Z,83.00
2022-10-11T18:45:04.990Z,83.14
2022-10-11T18:47:37.309Z,82.76
2022-10-11T18:50:12.808Z,83.16
2022-10-11T18:52:45.557Z,83.38
2022-10-11T18:55:17.830Z,83.54
2022-10-11T18:57:50.097Z,83.45
2022-10-11T19:00:40.084Z,83.51
2022-10-11T19:03:13.417Z,84.02
2022-10-11T19:05:47.929Z,83.81
2022-10-11T19:08:20.148Z,84.10
2022-10-11T19:10:52.196Z,84.33
2022-10-11T19:13:24.412Z,84.47
2022-10-11T19:15:56.229Z,85.17
2022-10-11T19:18:28.709Z,85.59
2022-10-11T19:21:04.609Z,85.24
2022-10-11T19:23:39.487Z,84.96
2022-10-11T19:26:15.929Z,85.52
2022-10-11T19:28:51.066Z,85.67
2022-10-11T19:31:23.030Z,85.93
2022-10-11T19:33:55.849Z,85.61
2022-10-11T19:36:36.272Z,86.68
2022-10-11T19:39:09.554Z,86.94
2022-10-11T19:41:41.431Z,87.17
2022-10-11T19:44:14.290Z,86.91
2022-10-11T19:46:52.671Z,87.11
2022-10-11T19:49:26.130Z,86.96
2022-10-11T19:52:01.632Z,86.87
2022-10-11T19:54:35.029Z,87.08
2022-10-11T19:57:08.991Z,87.46
2022-10-11T19:59:41.208Z,87.34
2022-10-11T20:02:13.658Z,86.83
2022-10-11T20:04:52.375Z,86.38
2022-10-11T20:07:27.790Z,86.45
2022-10-11T20:10:00.559Z,86.85
2022-10-11T20:12:32.683Z,86.88
2022-10-11T20:15:05.008Z,86.70
2022-10-11T20:17:48.956Z,87.02
2022-10-11T20:20:22.409Z,86.67
2022-10-11T20:22:57.111Z,86.39
2022-10-11T20:25:29.437Z,86.26
2022-10-11T20:28:01.328Z,85.53
2022-10-11T20:30:33.610Z,85.22
2022-10-11T20:33:05.511Z,85.10
2022-10-11T20:35:39.931Z,84.67
2022-10-11T20:38:14.510Z,84.78
2022-10-11T20:40:46.648Z,84.89
2022-10-11T20:43:18.608Z,85.19
2022-10-11T20:46:02.049Z,85.13
2022-10-11T20:48:34.813Z,85.45
2022-10-11T20:51:07.713Z,86.20
2022-10-11T20:53:44.248Z,86.36
2022-10-11T20:56:18.618Z,86.21
2022-10-11T20:58:53.372Z,87.25
2022-10-11T21:01:27.747Z,87.62
2022-10-11T21:04:01.538Z,87.86
2022-10-11T21:06:35.692Z,88.83
2022-10-11T21:09:12.664Z,89.34
2022-10-11T21:11:48.589Z,89.75
2022-10-11T21:14:20.470Z,89.40
2022-10-11T21:16:52.748Z,89.92
2022-10-11T21:19:24.651Z,88.44
2022-10-11T21:21:56.833Z,87.47
2022-10-11T21:24:31.369Z,89.05
2022-10-11T21:27:03.650Z,90.76
2022-10-11T21:29:35.488Z,90.81
2022-10-11T21:32:12.016Z,91.52
2022-10-11T21:34:46.131Z,91.20
2022-10-11T21:37:18.480Z,91.61
2022-10-11T21:39:53.110Z,92.08
2022-10-11T21:42:29.430Z,92.38
2022-10-11T21:45:01.578Z,92.79
2022-10-11T21:47:38.106Z,92.61
2022-10-11T21:50:11.309Z,92.63
2022-10-11T21:52:43.948Z,92.72
2022-10-11T21:55:18.909Z,92.11
2022-10-11T21:57:51.430Z,91.50
2022-10-11T22:00:23.628Z,92.04
2022-10-11T22:02:55.990Z,92.26
2022-10-11T22:05:28.297Z,92.26
2022-10-11T22:08:00.749Z,92.55
2022-10-11T22:10:35.890Z,92.46
2022-10-11T22:13:08.391Z,92.15
2022-10-11T22:15:40.871Z,92.42
2022-10-11T22:18:13.450Z,92.10
2022-10-11T22:20:45.432Z,92.33
2022-10-11T22:23:19.452Z,92.63
2022-10-11T22:25:54.430Z,92.48
2022-10-11T22:28:26.836Z,92.26
2022-10-11T22:30:59.208Z,92.16
2022-10-11T22:33:31.916Z,92.32
2022-10-11T22:36:05.933Z,93.06
2022-10-11T22:38:39.330Z,92.42
2022-10-11T22:41:15.029Z,92.08
2022-10-11T22:43:47.789Z,93.19
2022-10-11T22:46:20.126Z,92.65
2022-10-11T22:48:52.692Z,93.77
2022-10-11T22:51:25.029Z,94.16
2022-10-11T22:53:57.489Z,93.63
2022-10-11T22:56:32.458Z,92.57
2022-10-11T22:59:04.772Z,93.49
2022-10-11T23:01:36.678Z,93.52
2022-10-11T23:04:09.110Z,94.08
2022-10-11T23:06:41.191Z,93.80
2022-10-11T23:09:13.797Z,94.19
2022-10-11T23:11:48.730Z,93.90
2022-10-11T23:14:21.088Z,92.91
2022-10-11T23:16:54.971Z,94.00
2022-10-11T23:19:27.370Z,94.95
2022-10-11T23:21:59.628Z,94.58
2022-10-11T23:24:32.568Z,93.37
2022-10-11T23:27:07.789Z,94.96
2022-10-11T23:29:41.408Z,95.17
2022-10-11T23:32:14.731Z,93.93
2022-10-11T23:34:47.312Z,94.47
2022-10-11T23:37:19.530Z,94.09
2022-10-11T23:39:52.228Z,94.62
2022-10-11T23:42:26.988Z,94.11
2022-10-11T23:44:59.510Z,93.69
2022-10-11T23:47:31.550Z,93.89
2022-10-11T23:50:04.214Z,94.27
2022-10-11T23:52:36.370Z,94.57
2022-10-11T23:55:09.435Z,94.39
2022-10-11T23:57:44.470Z,94.60
